createdAt,value
2019-02-19T00:00:52.719Z,15.43
2019-02-19T00:03:20.223Z,13.10
2019-02-19T00:05:47.327Z,16.10
2019-02-19T00:08:14.407Z,12.10
2019-02-19T00:10:41.614Z,12.07
2019-02-19T00:13:08.750Z,17.77
2019-02-19T00:15:35.913Z,18.20
2019-02-19T00:18:03.075Z,24.37
2019-02-19T00:20:31.296Z,12.50
2019-02-19T00:22:58.555Z,11.70
2019-02-19T00:25:26.074Z,15.80
2019-02-19T00:27:53.311Z,10.93
2019-02-19T00:30:20.475Z,22.20
2019-02-19T00:32:47.537Z,16.07
2019-02-19T00:35:14.726Z,17.63
2019-02-19T00:37:41.894Z,11.80
2019-02-19T00:40:09.045Z,14.50
2019-02-19T00:42:36.274Z,11.30
2019-02-19T00:45:04.034Z,14.40
2019-02-19T00:47:31.180Z,11.83
2019-02-19T00:49:58.264Z,13.40
2019-02-19T00:52:25.443Z,11.50
2019-02-19T00:54:52.553Z,14.33
2019-02-19T00:57:19.782Z,12.27
2019-02-19T00:59:46.944Z,14.53
2019-02-19T01:02:14.136Z,17.77
2019-02-19T01:04:41.352Z,13.53
2019-02-19T01:07:08.538Z,13.40
2019-02-19T01:09:35.737Z,14.43
2019-02-19T01:12:03.195Z,12.87
2019-02-19T01:14:30.424Z,14.83
2019-02-19T01:16:57.591Z,17.77
2019-02-19T01:19:24.790Z,16.90
2019-02-19T01:21:51.948Z,17.27
2019-02-19T01:24:19.136Z,13.17
2019-02-19T01:26:46.338Z,18.87
2019-02-19T01:29:13.493Z,11.73
2019-02-19T01:31:40.565Z,12.23
2019-02-19T01:34:07.747Z,15.53
2019-02-19T01:36:35.142Z,16.00
2019-02-19T01:39:03.425Z,14.83
2019-02-19T01:41:30.837Z,12.53
2019-02-19T01:43:58.539Z,13.87
2019-02-19T01:46:26.038Z,14.20
2019-02-19T01:48:53.209Z,11.37
2019-02-19T01:51:20.396Z,14.67
2019-02-19T01:53:47.545Z,19.63
2019-02-19T01:56:14.764Z,20.00
2019-02-19T01:58:41.940Z,12.37
2019-02-19T02:01:09.115Z,13.00
2019-02-19T02:03:36.315Z,13.30
2019-02-19T02:06:03.627Z,15.13
2019-02-19T02:08:30.809Z,16.17
2019-02-19T02:10:58.005Z,15.63
2019-02-19T02:13:25.097Z,13.30
2019-02-19T02:15:52.513Z,21.90
2019-02-19T02:18:19.899Z,9.73
2019-02-19T02:20:46.985Z,13.10
2019-02-19T02:23:14.433Z,19.90
2019-02-19T02:25:41.821Z,15.53
2019-02-19T02:28:08.999Z,14.57
2019-02-19T02:30:36.505Z,13.87
2019-02-19T02:33:03.688Z,18.83
2019-02-19T02:35:30.768Z,14.20
2019-02-19T02:37:58.183Z,16.20
2019-02-19T02:40:25.405Z,13.90
2019-02-19T02:42:52.494Z,14.90
2019-02-19T02:45:19.556Z,18.30
2019-02-19T02:47:46.620Z,13.00
2019-02-19T02:50:14.114Z,16.70
2019-02-19T02:52:41.262Z,16.93
2019-02-19T02:55:08.408Z,18.27
2019-02-19T02:57:35.564Z,14.93
2019-02-19T03:00:02.829Z,13.50
2019-02-19T03:02:30.106Z,19.43
2019-02-19T03:04:57.409Z,14.73
2019-02-19T03:07:29.269Z,17.57
2019-02-19T03:09:56.509Z,14.10
2019-02-19T03:12:23.690Z,17.20
2019-02-19T03:14:50.865Z,14.73
2019-02-19T03:17:18.014Z,12.10
2019-02-19T03:19:45.164Z,17.47
2019-02-19T03:22:12.379Z,14.87
2019-02-19T03:24:40.154Z,16.10
2019-02-19T03:27:07.333Z,15.60
2019-02-19T03:29:35.075Z,13.90
2019-02-19T03:32:02.255Z,16.80
2019-02-19T03:34:29.396Z,15.90
2019-02-19T03:36:56.824Z,15.60
2019-02-19T03:39:24.014Z,14.13
2019-02-19T03:41:51.088Z,13.07
2019-02-19T03:44:18.580Z,13.50
2019-02-19T03:46:45.770Z,13.00
2019-02-19T03:49:12.952Z,15.67
2019-02-19T03:51:40.478Z,15.43
2019-02-19T03:54:07.644Z,20.80
2019-02-19T03:56:34.918Z,12.47
2019-02-19T03:59:02.131Z,16.87
2019-02-19T04:01:29.301Z,15.23
2019-02-19T04:03:56.439Z,15.43
2019-02-19T04:06:23.629Z,14.00
2019-02-19T04:08:50.768Z,17.87
2019-02-19T04:11:18.050Z,17.03
2019-02-19T04:13:45.144Z,14.90
2019-02-19T04:16:20.813Z,13.33
2019-02-19T04:18:41.280Z,14.73
2019-02-19T04:21:08.477Z,11.70
2019-02-19T04:23:35.631Z,15.43
2019-02-19T04:26:02.801Z,16.10
2019-02-19T04:28:30.295Z,13.00
2019-02-19T04:30:57.460Z,17.90
2019-02-19T04:33:24.605Z,19.53
2019-02-19T04:35:51.731Z,18.50
2019-02-19T04:38:18.876Z,14.13
2019-02-19T04:40:46.055Z,17.07
2019-02-19T04:43:13.650Z,17.23
2019-02-19T04:45:40.888Z,18.77
2019-02-19T04:48:07.938Z,23.87
2019-02-19T04:50:35.294Z,22.30
2019-02-19T04:53:02.434Z,19.73
2019-02-19T04:55:29.693Z,18.30
2019-02-19T04:57:56.876Z,14.20
2019-02-19T05:00:23.948Z,14.73
2019-02-19T05:02:51.620Z,15.70
2019-02-19T05:05:18.768Z,12.50
2019-02-19T05:07:45.944Z,14.07
2019-02-19T05:10:13.150Z,15.30
2019-02-19T05:12:40.344Z,17.93
2019-02-19T05:15:07.824Z,13.33
2019-02-19T05:17:34.998Z,20.10
2019-02-19T05:20:02.180Z,14.67
2019-02-19T05:22:29.449Z,17.10
2019-02-19T05:24:56.628Z,15.40
2019-02-19T05:27:23.839Z,15.03
2019-02-19T05:29:50.990Z,13.13
2019-02-19T05:32:18.614Z,11.00
2019-02-19T05:34:45.795Z,12.70
2019-02-19T05:37:12.957Z,15.73
2019-02-19T05:39:40.127Z,11.60
2019-02-19T05:42:07.213Z,11.27
2019-02-19T05:44:34.398Z,16.40
2019-02-19T05:47:01.470Z,14.13
2019-02-19T05:49:28.635Z,13.17
2019-02-19T05:51:55.789Z,13.00
2019-02-19T05:54:23.074Z,14.97
2019-02-19T05:56:50.283Z,11.67
2019-02-19T05:59:17.620Z,12.87
2019-02-19T06:01:44.787Z,13.33
2019-02-19T06:04:12.029Z,13.30
2019-02-19T06:06:39.350Z,13.73
2019-02-19T06:09:06.805Z,18.70
2019-02-19T06:11:35.064Z,13.43
2019-02-19T06:14:02.232Z,12.17
2019-02-19T06:16:29.697Z,11.93
2019-02-19T06:18:56.934Z,12.47
2019-02-19T06:21:24.081Z,15.53
2019-02-19T06:23:52.789Z,14.60
2019-02-19T06:26:20.516Z,12.90
2019-02-19T06:28:47.597Z,14.00
2019-02-19T06:31:14.765Z,15.37
2019-02-19T06:33:41.970Z,23.63
2019-02-19T06:36:09.135Z,17.33
2019-02-19T06:38:36.308Z,16.23
2019-02-19T06:41:03.559Z,18.67
2019-02-19T06:43:30.860Z,13.33
2019-02-19T06:45:58.047Z,17.57
2019-02-19T06:48:25.237Z,14.50
2019-02-19T06:50:52.338Z,16.03
2019-02-19T06:53:19.624Z,18.47
2019-02-19T06:55:46.864Z,19.53
2019-02-19T06:58:14.006Z,16.43
2019-02-19T07:00:41.220Z,22.60
2019-02-19T07:03:36.945Z,14.47
2019-02-19T07:06:04.161Z,17.83
2019-02-19T07:08:31.340Z,24.07
2019-02-19T07:10:58.552Z,15.70
2019-02-19T07:13:25.781Z,15.33
2019-02-19T07:15:52.863Z,18.73
2019-02-19T07:18:21.193Z,18.03
2019-02-19T07:20:48.372Z,16.00
2019-02-19T07:23:15.552Z,14.13
2019-02-19T07:25:43.261Z,12.30
2019-02-19T07:28:10.420Z,48.33
2019-02-19T07:30:37.907Z,34.03
2019-02-19T07:33:05.092Z,31.87
2019-02-19T07:35:32.196Z,31.03
2019-02-19T07:37:59.403Z,32.23
2019-02-19T07:40:26.591Z,23.80
2019-02-19T07:42:53.756Z,34.47
2019-02-19T07:45:21.564Z,24.17
2019-02-19T07:47:48.922Z,17.40
2019-02-19T07:50:16.147Z,23.87
2019-02-19T07:52:43.253Z,37.17
2019-02-19T07:55:10.495Z,57.50
2019-02-19T07:57:37.578Z,37.73
2019-02-19T08:00:04.813Z,47.17
2019-02-19T08:02:32.020Z,60.47
2019-02-19T08:04:59.173Z,147.40
2019-02-19T08:07:26.360Z,87.87
2019-02-19T08:09:53.750Z,29.23
2019-02-19T08:12:20.904Z,22.43
2019-02-19T08:14:48.063Z,24.93
2019-02-19T08:17:15.175Z,28.00
2019-02-19T08:19:42.382Z,22.40
2019-02-19T08:22:09.533Z,19.37
2019-02-19T08:24:36.746Z,32.77
2019-02-19T08:27:04.258Z,30.30
2019-02-19T08:29:31.497Z,37.77
2019-02-19T08:31:58.851Z,26.50
2019-02-19T08:34:25.917Z,27.60
2019-02-19T08:36:53.135Z,18.23
2019-02-19T08:39:20.323Z,25.97
2019-02-19T08:41:47.487Z,24.23
2019-02-19T08:44:14.782Z,20.40
2019-02-19T08:46:41.969Z,23.90
2019-02-19T08:49:09.155Z,23.57
2019-02-19T08:51:36.363Z,17.53
2019-02-19T08:54:03.540Z,21.10
2019-02-19T08:56:31.056Z,19.23
2019-02-19T08:58:58.559Z,23.27
2019-02-19T09:01:26.626Z,16.33
2019-02-19T09:03:53.831Z,17.97
2019-02-19T09:06:21.030Z,24.43
2019-02-19T09:08:48.500Z,54.60
2019-02-19T09:11:15.709Z,48.33
2019-02-19T09:13:42.882Z,65.80
2019-02-19T09:16:10.146Z,40.00
2019-02-19T09:18:37.224Z,19.67
2019-02-19T09:21:04.628Z,21.93
2019-02-19T09:23:31.841Z,19.17
2019-02-19T09:25:59.303Z,23.80
2019-02-19T09:28:26.464Z,20.67
2019-02-19T09:30:53.872Z,14.80
2019-02-19T09:33:21.299Z,29.43
2019-02-19T09:35:48.366Z,21.23
2019-02-19T09:38:15.967Z,20.57
2019-02-19T09:40:43.148Z,34.67
2019-02-19T09:43:10.373Z,33.03
2019-02-19T09:45:37.585Z,23.07
2019-02-19T09:48:04.685Z,22.30
2019-02-19T09:50:31.755Z,32.93
2019-02-19T09:53:00.247Z,23.33
2019-02-19T09:55:27.643Z,21.70
2019-02-19T09:57:54.772Z,22.53
2019-02-19T10:00:22.008Z,19.93
2019-02-19T10:02:49.166Z,19.47
2019-02-19T10:05:16.646Z,25.20
2019-02-19T10:07:43.861Z,18.63
2019-02-19T10:10:12.759Z,21.00
2019-02-19T10:12:39.947Z,23.43
2019-02-19T10:15:08.469Z,21.27
2019-02-19T10:17:35.653Z,20.40
2019-02-19T10:20:03.201Z,44.00
2019-02-19T10:22:30.450Z,27.30
2019-02-19T10:24:57.705Z,18.63
2019-02-19T10:27:24.829Z,27.87
2019-02-19T10:29:52.055Z,32.60
2019-02-19T10:32:19.450Z,27.17
2019-02-19T10:34:46.624Z,35.93
2019-02-19T10:37:13.843Z,28.33
2019-02-19T10:39:41.043Z,27.17
2019-02-19T10:42:08.303Z,26.73
2019-02-19T10:44:35.396Z,25.83
2019-02-19T10:47:02.621Z,24.83
2019-02-19T10:49:29.826Z,17.10
2019-02-19T10:51:57.063Z,22.93
2019-02-19T10:54:24.231Z,18.07
2019-02-19T10:56:51.929Z,18.27
2019-02-19T10:59:19.135Z,26.50
2019-02-19T11:01:46.300Z,23.33
2019-02-19T11:04:13.515Z,19.00
2019-02-19T11:06:40.795Z,22.70
2019-02-19T11:09:07.964Z,19.60
2019-02-19T11:11:35.228Z,16.93
2019-02-19T11:14:02.477Z,22.50
2019-02-19T11:16:29.652Z,17.77
2019-02-19T11:18:56.815Z,25.43
2019-02-19T11:21:24.044Z,31.73
2019-02-19T11:23:51.257Z,20.33
2019-02-19T11:26:18.331Z,23.37
2019-02-19T11:28:45.561Z,25.23
2019-02-19T11:31:12.786Z,17.07
2019-02-19T11:33:40.260Z,16.30
2019-02-19T11:36:07.506Z,22.90
2019-02-19T11:38:34.698Z,18.30
2019-02-19T11:41:01.908Z,14.17
2019-02-19T11:43:29.197Z,16.93
2019-02-19T11:45:56.438Z,21.93
2019-02-19T11:48:23.649Z,18.83
2019-02-19T11:50:50.786Z,15.30
2019-02-19T11:53:17.960Z,14.53
2019-02-19T11:55:45.168Z,20.23
2019-02-19T11:58:12.431Z,20.83
2019-02-19T12:00:40.224Z,16.13
2019-02-19T12:03:07.294Z,15.40
2019-02-19T12:05:34.759Z,13.13
2019-02-19T12:08:01.868Z,13.23
2019-02-19T12:10:29.057Z,14.77
2019-02-19T12:12:56.321Z,18.20
2019-02-19T12:15:23.564Z,15.77
2019-02-19T12:17:50.925Z,17.10
2019-02-19T12:20:26.112Z,15.03
2019-02-19T12:22:53.339Z,12.70
2019-02-19T12:25:20.518Z,16.37
2019-02-19T12:27:48.043Z,17.93
2019-02-19T12:30:15.212Z,15.80
2019-02-19T12:32:42.420Z,14.07
2019-02-19T12:35:09.952Z,19.53
2019-02-19T12:37:37.107Z,18.63
2019-02-19T12:40:04.948Z,13.80
2019-02-19T12:42:32.178Z,16.50
2019-02-19T12:44:59.683Z,16.20
2019-02-19T12:47:27.196Z,16.57
2019-02-19T12:49:54.620Z,23.47
2019-02-19T12:52:22.071Z,15.67
2019-02-19T12:54:49.147Z,13.47
2019-02-19T12:57:16.496Z,11.63
2019-02-19T12:59:43.659Z,11.83
2019-02-19T13:02:10.824Z,10.37
2019-02-19T13:04:38.353Z,14.77
2019-02-19T13:07:05.910Z,14.73
2019-02-19T13:09:33.099Z,8.90
2019-02-19T13:12:00.343Z,12.20
2019-02-19T13:14:27.507Z,12.13
2019-02-19T13:16:55.003Z,11.50
2019-02-19T13:19:22.224Z,21.03
2019-02-19T13:21:49.429Z,13.77
2019-02-19T13:24:16.995Z,10.60
2019-02-19T13:26:44.432Z,17.40
2019-02-19T13:29:11.686Z,12.67
2019-02-19T13:31:38.793Z,10.97
2019-02-19T13:34:06.003Z,14.70
2019-02-19T13:36:33.154Z,10.07
2019-02-19T13:39:00.403Z,9.13
2019-02-19T13:41:27.955Z,10.77
2019-02-19T13:43:55.269Z,15.83
2019-02-19T13:46:22.492Z,6.53
2019-02-19T13:48:49.717Z,10.50
2019-02-19T13:51:16.875Z,52.90
2019-02-19T13:53:52.374Z,7.93
2019-02-19T13:56:19.558Z,7.13
2019-02-19T13:58:46.769Z,6.80
2019-02-19T14:01:14.327Z,4.10
2019-02-19T14:03:41.529Z,7.83
2019-02-19T14:06:08.640Z,6.67
2019-02-19T14:08:35.914Z,7.80
2019-02-19T14:11:03.143Z,5.47
2019-02-19T14:13:30.359Z,15.20
2019-02-19T14:16:13.940Z,12.70
2019-02-19T14:18:46.946Z,9.70
2019-02-19T14:21:32.421Z,4.40
2019-02-19T14:24:25.027Z,3.17
2019-02-19T14:27:10.139Z,5.00
2019-02-19T14:29:57.166Z,5.97
2019-02-19T14:32:42.571Z,3.47
2019-02-19T14:35:27.993Z,4.30
2019-02-19T14:38:15.567Z,7.13
2019-02-19T14:41:00.785Z,6.37
2019-02-19T14:43:47.822Z,16.83
2019-02-19T14:46:33.247Z,8.23
2019-02-19T14:49:34.103Z,4.67
2019-02-19T14:52:11.817Z,5.97
2019-02-19T14:54:57.312Z,4.47
2019-02-19T14:57:51.837Z,6.07
2019-02-19T15:00:56.850Z,5.10
2019-02-19T15:03:44.272Z,7.10
2019-02-19T15:06:34.225Z,4.93
2019-02-19T15:09:19.337Z,3.30
2019-02-19T15:12:04.580Z,8.93
2019-02-19T15:14:43.855Z,5.23
2019-02-19T15:17:33.300Z,4.30
2019-02-19T15:20:38.590Z,5.10
2019-02-19T15:23:24.101Z,9.43
2019-02-19T15:26:13.662Z,2.77
2019-02-19T15:28:59.379Z,6.37
2019-02-19T15:31:58.009Z,14.37
2019-02-19T15:34:36.861Z,5.33
2019-02-19T15:37:33.146Z,4.33
2019-02-19T15:40:18.246Z,6.53
2019-02-19T15:43:03.406Z,6.03
2019-02-19T15:45:49.033Z,9.30
2019-02-19T15:48:34.070Z,6.30
2019-02-19T15:51:23.488Z,9.73
2019-02-19T15:54:19.703Z,9.17
2019-02-19T15:57:00.933Z,5.97
2019-02-19T15:59:46.588Z,7.20
2019-02-19T16:02:33.418Z,5.73
2019-02-19T16:05:29.585Z,6.10
2019-02-19T16:08:03.888Z,7.90
2019-02-19T16:10:43.171Z,3.53
2019-02-19T16:13:16.238Z,3.70
2019-02-19T16:16:03.345Z,4.30
2019-02-19T16:18:48.672Z,4.50
2019-02-19T16:21:33.785Z,6.53
2019-02-19T16:24:20.588Z,6.97
2019-02-19T16:26:56.028Z,5.43
2019-02-19T16:29:48.617Z,6.20
2019-02-19T16:32:40.755Z,4.83
2019-02-19T16:35:27.693Z,5.83
2019-02-19T16:38:02.590Z,10.40
2019-02-19T16:41:01.210Z,8.27
2019-02-19T16:43:50.766Z,14.13
2019-02-19T16:46:35.961Z,6.00
2019-02-19T16:49:25.569Z,3.03
2019-02-19T16:52:00.352Z,10.73
2019-02-19T16:55:05.275Z,10.00
2019-02-19T16:57:41.062Z,8.90
2019-02-19T17:00:29.440Z,5.10
2019-02-19T17:03:14.806Z,7.80
2019-02-19T17:05:57.372Z,6.37
2019-02-19T17:08:47.673Z,9.17
2019-02-19T17:11:23.146Z,5.43
2019-02-19T17:14:01.304Z,5.87
2019-02-19T17:16:59.957Z,5.30
2019-02-19T17:19:40.162Z,6.13
2019-02-19T17:22:42.149Z,5.30
2019-02-19T17:25:23.448Z,6.10
2019-02-19T17:28:19.476Z,5.10
2019-02-19T17:31:04.718Z,5.50
2019-02-19T17:33:50.161Z,7.43
2019-02-19T17:36:40.006Z,8.00
2019-02-19T17:39:41.670Z,6.53
2019-02-19T17:42:27.067Z,6.77
2019-02-19T17:45:01.442Z,5.50
2019-02-19T17:47:46.566Z,14.73
2019-02-19T17:50:38.224Z,8.10
2019-02-19T17:53:20.679Z,10.43
2019-02-19T17:56:01.557Z,10.97
2019-02-19T17:58:34.550Z,8.27
2019-02-19T18:01:33.199Z,9.10
2019-02-19T18:04:14.276Z,6.70
2019-02-19T18:07:11.421Z,8.27
2019-02-19T18:10:10.646Z,13.13
2019-02-19T18:13:00.860Z,10.93
2019-02-19T18:15:44.697Z,8.10
2019-02-19T18:18:27.310Z,8.50
2019-02-19T18:20:54.368Z,5.73
2019-02-19T18:23:21.558Z,6.87
2019-02-19T18:25:48.725Z,13.47
2019-02-19T18:28:15.949Z,10.73
2019-02-19T18:30:45.144Z,14.13
2019-02-19T18:33:12.292Z,12.93
2019-02-19T18:35:39.677Z,7.10
2019-02-19T18:38:06.866Z,10.70
2019-02-19T18:40:34.030Z,7.83
2019-02-19T18:43:01.238Z,5.40
2019-02-19T18:45:28.429Z,14.87
2019-02-19T18:47:55.922Z,8.90
2019-02-19T18:50:23.120Z,6.27
2019-02-19T18:52:50.316Z,8.13
2019-02-19T18:55:17.392Z,7.20
2019-02-19T18:57:44.599Z,11.23
2019-02-19T19:00:11.794Z,12.30
2019-02-19T19:02:38.988Z,7.33
2019-02-19T19:05:06.287Z,7.90
2019-02-19T19:07:33.617Z,5.73
2019-02-19T19:10:00.811Z,12.83
2019-02-19T19:12:28.153Z,5.20
2019-02-19T19:14:55.341Z,7.23
2019-02-19T19:17:22.471Z,11.33
2019-02-19T19:19:49.731Z,10.60
2019-02-19T19:22:16.909Z,6.00
2019-02-19T19:24:44.166Z,6.20
2019-02-19T19:27:11.353Z,5.27
2019-02-19T19:29:38.541Z,6.67
2019-02-19T19:32:06.113Z,10.10
2019-02-19T19:34:33.313Z,17.03
2019-02-19T19:37:00.419Z,12.57
2019-02-19T19:39:27.612Z,8.60
2019-02-19T19:41:54.763Z,12.10
2019-02-19T19:44:21.977Z,11.13
2019-02-19T19:46:49.211Z,5.73
2019-02-19T19:49:16.476Z,13.17
2019-02-19T19:51:43.708Z,9.77
2019-02-19T19:54:10.895Z,6.17
2019-02-19T19:56:38.104Z,4.87
2019-02-19T19:59:05.275Z,8.30
2019-02-19T20:01:32.511Z,7.40
2019-02-19T20:03:59.685Z,14.83
2019-02-19T20:06:26.902Z,8.60
2019-02-19T20:08:54.086Z,18.80
2019-02-19T20:11:21.348Z,6.40
2019-02-19T20:13:48.841Z,6.40
2019-02-19T20:16:16.482Z,11.73
2019-02-19T20:18:43.694Z,10.97
2019-02-19T20:21:10.939Z,5.30
2019-02-19T20:23:38.045Z,10.37
2019-02-19T20:26:05.259Z,10.83
2019-02-19T20:28:32.494Z,7.47
2019-02-19T20:30:59.695Z,14.93
2019-02-19T20:33:26.891Z,10.47
2019-02-19T20:35:53.980Z,8.97
2019-02-19T20:38:21.218Z,10.27
2019-02-19T20:40:49.039Z,12.00
2019-02-19T20:43:16.936Z,14.80
2019-02-19T20:45:44.132Z,9.40
2019-02-19T20:48:11.568Z,11.77
2019-02-19T20:50:38.700Z,13.00
2019-02-19T20:53:06.269Z,11.13
2019-02-19T20:55:36.936Z,11.20
2019-02-19T20:58:02.655Z,10.90
2019-02-19T21:00:29.781Z,12.27
2019-02-19T21:02:57.289Z,11.40
2019-02-19T21:05:24.349Z,9.57
2019-02-19T21:07:51.590Z,14.23
2019-02-19T21:10:18.730Z,7.23
2019-02-19T21:12:45.955Z,11.13
2019-02-19T21:15:13.903Z,9.70
2019-02-19T21:17:41.122Z,10.13
2019-02-19T21:20:08.422Z,8.63
2019-02-19T21:22:35.632Z,9.17
2019-02-19T21:25:02.965Z,17.30
2019-02-19T21:27:30.197Z,11.43
2019-02-19T21:29:57.416Z,9.23
2019-02-19T21:32:24.648Z,9.97
2019-02-19T21:34:51.842Z,8.03
2019-02-19T21:37:19.211Z,13.93
2019-02-19T21:39:46.791Z,19.87
2019-02-19T21:42:14.051Z,12.60
2019-02-19T21:44:41.289Z,10.90
2019-02-19T21:47:08.772Z,12.50
2019-02-19T21:49:36.131Z,7.63
2019-02-19T21:52:03.371Z,8.17
2019-02-19T21:54:30.605Z,10.77
2019-02-19T21:56:57.854Z,11.40
2019-02-19T21:59:25.172Z,12.47
2019-02-19T22:01:52.476Z,15.70
2019-02-19T22:04:20.011Z,7.53
2019-02-19T22:06:47.278Z,10.70
2019-02-19T22:09:14.601Z,11.20
2019-02-19T22:11:41.958Z,9.30
2019-02-19T22:14:09.237Z,8.77
2019-02-19T22:16:36.516Z,11.83
2019-02-19T22:19:04.073Z,10.87
2019-02-19T22:21:49.535Z,11.57
2019-02-19T22:24:33.827Z,9.33
2019-02-19T22:27:01.221Z,10.03
2019-02-19T22:29:28.496Z,9.90
2019-02-19T22:31:55.742Z,18.50
2019-02-19T22:34:22.999Z,8.70
2019-02-19T22:36:50.193Z,9.93
2019-02-19T22:39:17.355Z,12.70
2019-02-19T22:41:44.611Z,11.20
2019-02-19T22:44:12.315Z,13.20
2019-02-19T22:46:39.822Z,9.83
2019-02-19T22:49:07.043Z,8.40
2019-02-19T22:51:34.192Z,9.37
2019-02-19T22:54:19.545Z,11.97
2019-02-19T22:56:46.861Z,12.43
2019-02-19T22:59:14.068Z,13.40
2019-02-19T23:02:11.010Z,9.97
2019-02-19T23:04:38.228Z,12.23
2019-02-19T23:07:05.652Z,13.27
2019-02-19T23:09:32.925Z,11.30
2019-02-19T23:12:00.091Z,10.23
2019-02-19T23:14:27.245Z,12.70
2019-02-19T23:16:54.508Z,12.97
2019-02-19T23:19:24.475Z,13.47
2019-02-19T23:21:51.661Z,11.33
2019-02-19T23:24:18.871Z,11.50
2019-02-19T23:26:46.038Z,11.93
2019-02-19T23:29:13.202Z,13.30
2019-02-19T23:31:40.335Z,12.03
2019-02-19T23:34:07.827Z,8.70
2019-02-19T23:36:41.922Z,12.00
2019-02-19T23:39:09.460Z,11.23
2019-02-19T23:41:36.548Z,11.27
2019-02-19T23:44:03.980Z,12.13
2019-02-19T23:46:31.164Z,11.70
2019-02-19T23:48:58.332Z,12.53
2019-02-19T23:51:25.540Z,12.80
2019-02-19T23:53:52.727Z,11.20
2019-02-19T23:56:19.886Z,11.77
2019-02-19T23:58:47.121Z,13.40
